createdAt,value
2023-04-20T00:00:31.763Z,70.6429
2023-04-20T00:01:31.810Z,70.5714
2023-04-20T00:02:32.016Z,70.5714
2023-04-20T00:03:32.008Z,70.5714
2023-04-20T00:04:31.943Z,70.5714
2023-04-20T00:05:32.105Z,70.5714
2023-04-20T00:06:32.016Z,70.5
2023-04-20T00:07:32.049Z,70.4286
2023-04-20T00:08:32.106Z,70.5
2023-04-20T00:09:32.154Z,70.5
2023-04-20T00:10:32.174Z,70.5
2023-04-20T00:11:32.219Z,70.5
2023-04-20T00:12:32.269Z,70.5714
2023-04-20T00:13:32.303Z,70.5714
2023-04-20T00:14:32.337Z,70.6429
2023-04-20T00:15:32.378Z,70.7857
2023-04-20T00:16:32.444Z,70.7857
2023-04-20T00:17:32.505Z,70.6429
2023-04-20T00:18:32.514Z,70.6429
2023-04-20T00:19:32.547Z,70.7143
2023-04-20T00:20:32.582Z,70.7857
2023-04-20T00:21:32.611Z,70.7143
2023-04-20T00:22:32.660Z,70.6429
2023-04-20T00:23:32.697Z,70.6429
2023-04-20T00:24:32.742Z,70.6429
2023-04-20T00:25:32.814Z,70.5
2023-04-20T00:26:32.832Z,70.5
2023-04-20T00:27:32.866Z,70.5714
2023-04-20T00:28:32.915Z,70.5
2023-04-20T00:29:32.952Z,70.5
2023-04-20T00:30:33.031Z,70.4286
2023-04-20T00:31:33.026Z,70.4286
2023-04-20T00:32:33.098Z,70.4286
2023-04-20T00:33:33.120Z,70.5
2023-04-20T00:34:33.160Z,70.4286
2023-04-20T00:35:33.222Z,70.5
2023-04-20T00:36:33.247Z,70.4286
2023-04-20T00:37:33.292Z,70.5
2023-04-20T00:38:33.336Z,70.5
2023-04-20T00:39:33.368Z,70.5
2023-04-20T00:40:33.422Z,70.5
2023-04-20T00:41:33.474Z,70.4286
2023-04-20T00:42:33.509Z,70.3571
2023-04-20T00:43:33.535Z,70.3571
2023-04-20T00:44:33.594Z,70.3571
2023-04-20T00:45:33.622Z,70.2857
2023-04-20T00:46:33.672Z,70.2857
2023-04-20T00:47:33.751Z,70.2857
2023-04-20T00:48:33.745Z,70.3571
2023-04-20T00:49:33.803Z,70.4286
2023-04-20T00:50:33.833Z,70.5
2023-04-20T00:51:33.874Z,70.4286
2023-04-20T00:52:33.931Z,70.3571
2023-04-20T00:53:33.958Z,70.2143
2023-04-20T00:54:33.996Z,70.1429
2023-04-20T00:55:34.035Z,70.2857
2023-04-20T00:56:34.085Z,70.2857
2023-04-20T00:57:34.124Z,70.2857
2023-04-20T00:58:34.166Z,70.2143
2023-04-20T00:59:34.214Z,70.2143
2023-04-20T01:00:34.250Z,70.1429
2023-04-20T01:01:34.320Z,70.0714
2023-04-20T01:02:34.453Z,70.0714
2023-04-20T01:03:34.624Z,70.2143
2023-04-20T01:04:34.478Z,70.2143
2023-04-20T01:05:34.459Z,70.1429
2023-04-20T01:06:34.495Z,70.0714
2023-04-20T01:07:34.546Z,70.1429
2023-04-20T01:08:34.580Z,70.1429
2023-04-20T01:09:34.612Z,70.2857
2023-04-20T01:10:34.689Z,70.2857
2023-04-20T01:11:34.711Z,70.3571
2023-04-20T01:12:34.744Z,70.3571
2023-04-20T01:13:34.803Z,70.2857
2023-04-20T01:14:34.825Z,70.2857
2023-04-20T01:15:34.862Z,70.2857
2023-04-20T01:16:35.080Z,70.3571
2023-04-20T01:17:35.050Z,70.2857
2023-04-20T01:18:35.000Z,70.2857
2023-04-20T01:19:35.050Z,70.3571
2023-04-20T01:20:35.094Z,70.3571
2023-04-20T01:21:35.126Z,70.4286
2023-04-20T01:22:35.158Z,70.4286
2023-04-20T01:23:35.200Z,70.4286
2023-04-20T01:24:35.257Z,70.4286
2023-04-20T01:25:35.288Z,70.5
2023-04-20T01:26:35.326Z,70.5
2023-04-20T01:27:35.352Z,70.5714
2023-04-20T01:28:35.408Z,70.5714
2023-04-20T01:29:35.443Z,70.6429
2023-04-20T01:30:35.489Z,70.7143
2023-04-20T01:31:35.545Z,70.7857
2023-04-20T01:32:35.617Z,70.8571
2023-04-20T01:33:35.636Z,70.9286
2023-04-20T01:34:35.663Z,71
2023-04-20T01:35:35.702Z,71
2023-04-20T01:36:35.746Z,71.0714
2023-04-20T01:37:35.781Z,71.0714
2023-04-20T01:38:35.826Z,71.1429
2023-04-20T01:39:35.936Z,71.1429
2023-04-20T01:40:35.899Z,71.0714
2023-04-20T01:41:35.940Z,71.1429
2023-04-20T01:42:35.978Z,71.2143
2023-04-20T01:43:36.033Z,71.2143
2023-04-20T01:44:36.053Z,71.2143
2023-04-20T01:45:36.111Z,71.2143
2023-04-20T01:46:36.182Z,71.2857
2023-04-20T01:47:36.241Z,71.2857
2023-04-20T01:48:36.226Z,71.2857
2023-04-20T01:49:36.279Z,71.3571
2023-04-20T01:50:36.305Z,71.3571
2023-04-20T01:51:36.358Z,71.4286
2023-04-20T01:52:36.393Z,71.4286
2023-04-20T01:53:36.451Z,71.5
2023-04-20T01:54:36.473Z,71.5
2023-04-20T01:55:36.520Z,71.5714
2023-04-20T01:56:36.558Z,71.5714
2023-04-20T01:57:36.607Z,71.6429
2023-04-20T01:58:36.666Z,71.6429
2023-04-20T01:59:36.695Z,71.7143
2023-04-20T02:00:36.745Z,71.7143
2023-04-20T02:01:36.777Z,71.7857
2023-04-20T02:02:36.963Z,71.7857
2023-04-20T02:03:37.043Z,71.7857
2023-04-20T02:04:36.908Z,71.7857
2023-04-20T02:05:36.938Z,71.7857
2023-04-20T02:06:36.983Z,71.7857
2023-04-20T02:07:37.031Z,71.7857
2023-04-20T02:08:37.080Z,71.7857
2023-04-20T02:09:37.117Z,71.7143
2023-04-20T02:10:37.153Z,71.7857
2023-04-20T02:11:37.209Z,71.7857
2023-04-20T02:12:37.238Z,71.7857
2023-04-20T02:13:37.286Z,71.7857
2023-04-20T02:14:37.313Z,71.9286
2023-04-20T02:15:37.378Z,71.9286
2023-04-20T02:16:37.453Z,72
2023-04-20T02:17:37.511Z,72
2023-04-20T02:18:37.498Z,72
2023-04-20T02:19:37.539Z,72
2023-04-20T02:20:37.589Z,72
2023-04-20T02:21:37.609Z,72
2023-04-20T02:22:37.648Z,72
2023-04-20T02:23:37.678Z,72
2023-04-20T02:24:37.727Z,72.0714
2023-04-20T02:25:37.755Z,72
2023-04-20T02:26:37.807Z,72
2023-04-20T02:27:37.842Z,72
2023-04-20T02:28:37.882Z,72
2023-04-20T02:29:37.911Z,72
2023-04-20T02:30:37.962Z,72
2023-04-20T02:31:38.027Z,71.9286
2023-04-20T02:32:38.066Z,71.9286
2023-04-20T02:33:38.091Z,71.8571
2023-04-20T02:34:38.131Z,71.8571
2023-04-20T02:35:38.170Z,71.7857
2023-04-20T02:36:38.234Z,71.7857
2023-04-20T02:37:38.258Z,71.7857
2023-04-20T02:38:38.300Z,71.7857
2023-04-20T02:39:38.344Z,71.7857
2023-04-20T02:40:38.391Z,71.7857
2023-04-20T02:41:38.438Z,71.8571
2023-04-20T02:42:38.467Z,71.8571
2023-04-20T02:43:38.512Z,71.8571
2023-04-20T02:44:38.549Z,71.8571
2023-04-20T02:45:38.599Z,71.8571
2023-04-20T02:46:38.653Z,71.7857
2023-04-20T02:47:38.743Z,71.7857
2023-04-20T02:48:38.723Z,71.7857
2023-04-20T02:49:38.756Z,71.7857
2023-04-20T02:50:38.810Z,71.7857
2023-04-20T02:51:38.837Z,71.7857
2023-04-20T02:52:38.880Z,71.7143
2023-04-20T02:53:38.925Z,71.7143
2023-04-20T02:54:38.977Z,71.5714
2023-04-20T02:55:39.008Z,71.5714
2023-04-20T02:56:39.071Z,71.5714
2023-04-20T02:57:39.099Z,71.5
2023-04-20T02:58:39.135Z,71.5
2023-04-20T02:59:39.174Z,71.5
2023-04-20T03:00:39.209Z,71.5
2023-04-20T03:01:39.295Z,71.5
2023-04-20T03:02:39.406Z,71.5
2023-04-20T03:03:39.453Z,71.5
2023-04-20T03:04:39.406Z,71.4286
2023-04-20T03:05:39.413Z,71.4286
2023-04-20T03:06:39.444Z,71.4286
2023-04-20T03:07:39.506Z,71.4286
2023-04-20T03:08:39.538Z,71.3571
2023-04-20T03:09:39.590Z,71.4286
2023-04-20T03:10:39.636Z,71.3571
2023-04-20T03:11:39.664Z,71.4286
2023-04-20T03:12:39.700Z,71.5
2023-04-20T03:13:39.749Z,71.5
2023-04-20T03:14:39.791Z,71.4286
2023-04-20T03:15:39.825Z,71.3571
2023-04-20T03:16:39.995Z,71.2857
2023-04-20T03:17:39.945Z,71.2857
2023-04-20T03:18:39.955Z,71.2857
2023-04-20T03:19:39.988Z,71.2857
2023-04-20T03:20:40.066Z,71.2857
2023-04-20T03:21:40.090Z,71.3571
2023-04-20T03:22:40.119Z,71.4286
2023-04-20T03:23:40.163Z,71.5
2023-04-20T03:24:40.207Z,71.5
2023-04-20T03:25:40.242Z,71.5
2023-04-20T03:26:40.289Z,71.5
2023-04-20T03:27:40.341Z,71.4286
2023-04-20T03:28:40.378Z,71.4286
2023-04-20T03:29:40.438Z,71.3571
2023-04-20T03:30:40.465Z,71.3571
2023-04-20T03:31:40.556Z,71.3571
2023-04-20T03:32:40.567Z,71.2857
2023-04-20T03:33:40.580Z,71.2857
2023-04-20T03:34:40.612Z,71.2857
2023-04-20T03:35:40.660Z,71.3571
2023-04-20T03:36:40.704Z,71.4286
2023-04-20T03:37:40.743Z,71.3571
2023-04-20T03:38:40.785Z,71.2857
2023-04-20T03:39:40.814Z,71.2857
2023-04-20T03:40:40.860Z,71.2857
2023-04-20T03:41:40.894Z,71.2857
2023-04-20T03:42:40.956Z,71.0714
2023-04-20T03:43:40.993Z,71
2023-04-20T03:44:41.031Z,70.9286
2023-04-20T03:45:41.104Z,70.9286
2023-04-20T03:46:41.113Z,70.8571
2023-04-20T03:47:41.165Z,70.8571
2023-04-20T03:48:41.216Z,70.7143
2023-04-20T03:49:41.238Z,70.6429
2023-04-20T03:50:41.275Z,70.6429
2023-04-20T03:51:41.322Z,70.7857
2023-04-20T03:52:41.361Z,70.7857
2023-04-20T03:53:41.409Z,70.7857
2023-04-20T03:54:41.449Z,70.7143
2023-04-20T03:55:41.483Z,70.7143
2023-04-20T03:56:41.533Z,70.6429
2023-04-20T03:57:41.590Z,70.5714
2023-04-20T03:58:41.616Z,70.5
2023-04-20T03:59:41.659Z,70.4286
2023-04-20T04:00:41.694Z,70.3571
2023-04-20T04:01:41.733Z,70.3571
2023-04-20T04:02:41.910Z,70.2857
2023-04-20T04:03:41.992Z,70.2143
2023-04-20T04:04:41.965Z,70.2143
2023-04-20T04:05:41.966Z,70.1429
2023-04-20T04:06:41.933Z,70.2143
2023-04-20T04:07:41.991Z,70.1429
2023-04-20T04:08:42.018Z,70.0714
2023-04-20T04:09:42.067Z,70.0714
2023-04-20T04:10:42.101Z,70.0714
2023-04-20T04:11:42.150Z,70.0714
2023-04-20T04:12:42.181Z,70.0714
2023-04-20T04:13:42.239Z,70
2023-04-20T04:14:42.273Z,70
2023-04-20T04:15:42.310Z,70
2023-04-20T04:16:42.405Z,70
2023-04-20T04:17:42.406Z,70.0714
2023-04-20T04:18:42.421Z,70.0714
2023-04-20T04:19:42.467Z,70.0714
2023-04-20T04:20:42.505Z,70.0714
2023-04-20T04:21:42.537Z,70.0714
2023-04-20T04:22:42.576Z,70.0714
2023-04-20T04:23:42.698Z,70.0714
2023-04-20T04:24:42.673Z,70.0714
2023-04-20T04:25:42.713Z,70
2023-04-20T04:26:42.748Z,70
2023-04-20T04:27:42.794Z,70.0714
2023-04-20T04:28:42.832Z,70.0714
2023-04-20T04:29:42.879Z,70.0714
2023-04-20T04:30:42.911Z,70.0714
2023-04-20T04:31:43.008Z,70.1429
2023-04-20T04:32:43.036Z,70.2143
2023-04-20T04:33:43.039Z,70.2857
2023-04-20T04:34:43.077Z,70.4286
2023-04-20T04:35:43.123Z,70.4286
2023-04-20T04:36:43.159Z,70.2857
2023-04-20T04:37:43.201Z,70.2857
2023-04-20T04:38:43.228Z,70.2143
2023-04-20T04:39:43.297Z,70.1429
2023-04-20T04:40:43.324Z,70.1429
2023-04-20T04:41:43.364Z,70.2143
2023-04-20T04:42:43.405Z,70.2143
2023-04-20T04:43:43.439Z,70.2857
2023-04-20T04:44:43.483Z,70.3571
2023-04-20T04:45:43.512Z,70.4286
2023-04-20T04:46:43.627Z,70.5
2023-04-20T04:47:43.637Z,70.5
2023-04-20T04:48:43.649Z,70.5
2023-04-20T04:49:43.672Z,70.5714
2023-04-20T04:50:43.734Z,70.6429
2023-04-20T04:51:43.759Z,70.7143
2023-04-20T04:52:43.799Z,70.8571
2023-04-20T04:53:43.843Z,70.7857
2023-04-20T04:54:43.916Z,70.8571
2023-04-20T04:55:43.930Z,70.9286
2023-04-20T04:56:43.975Z,70.9286
2023-04-20T04:57:44.002Z,70.9286
2023-04-20T04:58:44.058Z,70.9286
2023-04-20T04:59:44.098Z,71
2023-04-20T05:00:44.129Z,71
2023-04-20T05:01:44.209Z,70.9286
2023-04-20T05:02:44.301Z,70.7857
2023-04-20T05:03:44.320Z,70.6429
2023-04-20T05:04:44.465Z,70.6429
2023-04-20T05:05:44.333Z,70.5714
2023-04-20T05:06:44.372Z,70.6429
2023-04-20T05:07:44.425Z,70.7143
2023-04-20T05:08:44.455Z,70.7143
2023-04-20T05:09:44.500Z,70.6429
2023-04-20T05:10:44.529Z,70.5714
2023-04-20T05:11:44.563Z,70.5714
2023-04-20T05:12:44.633Z,70.5714
2023-04-20T05:13:44.655Z,70.5714
2023-04-20T05:14:44.692Z,70.5
2023-04-20T05:15:44.725Z,70.4286
2023-04-20T05:16:44.875Z,70.4286
2023-04-20T05:17:44.836Z,70.5
2023-04-20T05:18:44.851Z,70.3571
2023-04-20T05:19:44.885Z,70
2023-04-20T05:20:44.929Z,69.5
2023-04-20T05:21:44.978Z,69.2143
2023-04-20T05:22:45.011Z,69.2143
2023-04-20T05:23:45.046Z,69.2143
2023-04-20T05:24:45.084Z,69.4286
2023-04-20T05:25:45.124Z,69.5714
2023-04-20T05:26:45.172Z,69.6429
2023-04-20T05:27:45.239Z,69.6429
2023-04-20T05:28:45.258Z,69.4286
2023-04-20T05:29:45.284Z,69.2857
2023-04-20T05:30:45.323Z,69.2143
2023-04-20T05:31:45.490Z,68.9286
2023-04-20T05:32:45.411Z,68.7857
2023-04-20T05:33:45.440Z,68.7143
2023-04-20T05:34:45.485Z,68.5
2023-04-20T05:35:45.539Z,68.3571
2023-04-20T05:36:45.568Z,68.5
2023-04-20T05:37:45.613Z,68.6429
2023-04-20T05:38:45.639Z,68.7857
2023-04-20T05:39:45.675Z,68.7143
2023-04-20T05:40:46.308Z,68.7143
2023-04-20T05:41:45.755Z,68.7143
2023-04-20T05:42:45.807Z,68.5714
2023-04-20T05:43:45.842Z,68.3571
2023-04-20T05:44:45.877Z,68.0714
2023-04-20T05:45:45.931Z,68.1429
2023-04-20T05:46:45.967Z,68.2143
2023-04-20T05:47:46.034Z,68.1429
2023-04-20T05:48:46.035Z,67.9286
2023-04-20T05:49:46.076Z,67.8571
2023-04-20T05:50:46.113Z,67.7143
2023-04-20T05:51:46.158Z,67.6429
2023-04-20T05:52:46.192Z,67.5
2023-04-20T05:53:46.232Z,67.4286
2023-04-20T05:54:46.280Z,67.5
2023-04-20T05:55:46.312Z,67.1429
2023-04-20T05:56:46.334Z,66.7857
2023-04-20T05:57:46.383Z,66.7857
2023-04-20T05:58:46.440Z,66.7143
2023-04-20T05:59:46.465Z,66.7143
2023-04-20T06:00:46.510Z,66.5714
2023-04-20T06:01:46.537Z,66.5714
2023-04-20T06:02:46.757Z,66.7857
2023-04-20T06:03:46.753Z,66.9286
2023-04-20T06:04:46.873Z,66.7143
2023-04-20T06:05:46.696Z,66.5714
2023-04-20T06:06:46.736Z,66.6429
2023-04-20T06:07:46.771Z,66.5
2023-04-20T06:08:46.808Z,66.2143
2023-04-20T06:09:46.856Z,66
2023-04-20T06:10:46.911Z,66.0714
2023-04-20T06:11:46.943Z,65.8571
2023-04-20T06:12:46.972Z,66
2023-04-20T06:13:47.015Z,66.1429
2023-04-20T06:14:47.048Z,66.2857
2023-04-20T06:15:47.166Z,65.8571
2023-04-20T06:16:47.192Z,65.9286
2023-04-20T06:17:47.200Z,65.6429
2023-04-20T06:18:47.229Z,65.2143
2023-04-20T06:19:47.256Z,65.3571
2023-04-20T06:20:47.322Z,65.7143
2023-04-20T06:21:47.338Z,65.9286
2023-04-20T06:22:47.396Z,65.7857
2023-04-20T06:23:47.431Z,65.5
2023-04-20T06:24:47.462Z,65.4286
2023-04-20T06:25:47.500Z,65.6429
2023-04-20T06:26:47.543Z,65.5
2023-04-20T06:27:47.627Z,65.6429
2023-04-20T06:28:47.630Z,65.7143
2023-04-20T06:29:47.660Z,65.7143
2023-04-20T06:30:47.702Z,65.7143
2023-04-20T06:31:47.768Z,65.7857
2023-04-20T06:32:47.796Z,65.9286
2023-04-20T06:33:47.820Z,65.9286
2023-04-20T06:34:47.995Z,65.8571
2023-04-20T06:35:48.001Z,65.5714
2023-04-20T06:36:48.002Z,65.3571
2023-04-20T06:37:48.039Z,65.4286
2023-04-20T06:38:48.030Z,65
2023-04-20T06:39:48.050Z,65
2023-04-20T06:40:48.102Z,65.0714
2023-04-20T06:41:48.132Z,65.0714
2023-04-20T06:42:48.179Z,65.3571
2023-04-20T06:43:48.204Z,65.4286
2023-04-20T06:44:48.256Z,65.2143
2023-04-20T06:45:48.307Z,64.7857
2023-04-20T06:46:48.370Z,65
2023-04-20T06:47:48.486Z,65
2023-04-20T06:48:48.418Z,65
2023-04-20T06:49:48.446Z,65.2143
2023-04-20T06:50:48.497Z,65.2143
2023-04-20T06:51:48.538Z,64.9286
2023-04-20T06:52:48.576Z,64.9286
2023-04-20T06:53:48.620Z,65.2143
2023-04-20T06:54:48.654Z,65.4286
2023-04-20T06:55:48.704Z,65.2143
2023-04-20T06:56:48.736Z,64.9286
2023-04-20T06:57:48.779Z,64.6429
2023-04-20T06:58:48.881Z,64.7857
2023-04-20T06:59:48.858Z,64.9286
2023-04-20T07:00:48.897Z,65
2023-04-20T07:01:48.948Z,64.7143
2023-04-20T07:02:49.134Z,64.5
2023-04-20T07:03:49.106Z,64.4286
2023-04-20T07:04:49.111Z,64.1429
2023-04-20T07:05:49.109Z,64.0714
2023-04-20T07:06:50.593Z,64.2143
2023-04-20T07:07:49.157Z,63.7857
2023-04-20T07:08:49.203Z,64
2023-04-20T07:09:49.260Z,63.6429
2023-04-20T07:10:49.296Z,63.2143
2023-04-20T07:11:49.328Z,63.2143
2023-04-20T07:12:49.368Z,63.4286
2023-04-20T07:13:49.405Z,63.5
2023-04-20T07:14:49.437Z,63.4286
2023-04-20T07:15:49.503Z,63.6429
2023-04-20T07:16:49.591Z,63.7143
2023-04-20T07:17:49.600Z,63.5
2023-04-20T07:18:49.617Z,63.3571
2023-04-20T07:19:49.657Z,63.5
2023-04-20T07:20:49.699Z,62.9286
2023-04-20T07:21:49.750Z,62.7857
2023-04-20T07:22:49.789Z,62.4286
2023-04-20T07:23:49.825Z,62.1429
2023-04-20T07:24:49.873Z,61.5714
2023-04-20T07:25:49.906Z,61.5714
2023-04-20T07:26:49.947Z,61.3571
2023-04-20T07:27:49.986Z,61.2143
2023-04-20T07:28:50.030Z,61.7143
2023-04-20T07:29:50.074Z,61.3571
2023-04-20T07:30:50.122Z,60.9286
2023-04-20T07:31:50.193Z,61.3571
2023-04-20T07:32:50.279Z,61.6429
2023-04-20T07:33:50.234Z,61.7143
2023-04-20T07:34:50.264Z,61.5714
2023-04-20T07:35:50.293Z,61.5
2023-04-20T07:36:50.346Z,61
2023-04-20T07:37:50.386Z,61.1429
2023-04-20T07:38:50.416Z,61.5
2023-04-20T07:39:50.452Z,61.0714
2023-04-20T07:40:50.489Z,61.3571
2023-04-20T07:41:50.534Z,61.1429
2023-04-20T07:42:50.573Z,60.6429
2023-04-20T07:43:50.608Z,60.7143
2023-04-20T07:44:50.652Z,60.9286
2023-04-20T07:45:50.721Z,61.2857
2023-04-20T07:46:50.758Z,61.3571
2023-04-20T07:47:50.861Z,61.3571
2023-04-20T07:48:50.838Z,61.4286
2023-04-20T07:49:50.854Z,61.4286
2023-04-20T07:50:50.917Z,61.3571
2023-04-20T07:51:50.946Z,61.5
2023-04-20T07:52:50.990Z,61.1429
2023-04-20T07:53:51.064Z,60.7143
2023-04-20T07:54:51.066Z,61
2023-04-20T07:55:51.226Z,60.7857
2023-04-20T07:56:51.152Z,60.2143
2023-04-20T07:57:51.200Z,59.5
2023-04-20T07:58:51.247Z,59.4286
2023-04-20T07:59:51.271Z,59.7857
2023-04-20T08:00:51.316Z,59.6429
2023-04-20T08:01:51.359Z,59.6429
2023-04-20T08:02:51.646Z,59.5
2023-04-20T08:03:51.616Z,59.6429
2023-04-20T08:04:51.726Z,59.3571
2023-04-20T08:05:51.542Z,59.1429
2023-04-20T08:06:51.573Z,59.5714
2023-04-20T08:07:51.591Z,59.3571
2023-04-20T08:08:51.636Z,58.9286
2023-04-20T08:09:51.669Z,58.7143
2023-04-20T08:10:51.715Z,58.1429
2023-04-20T08:11:51.759Z,58.1429
2023-04-20T08:12:52.858Z,58
2023-04-20T08:13:51.851Z,58.7143
2023-04-20T08:14:51.944Z,58.9286
2023-04-20T08:15:51.938Z,59.1429
2023-04-20T08:16:51.961Z,59.5
2023-04-20T08:17:52.012Z,59.0714
2023-04-20T08:18:52.051Z,58.5714
2023-04-20T08:19:52.071Z,58.7857
2023-04-20T08:20:52.130Z,58.6429
2023-04-20T08:21:52.159Z,59
2023-04-20T08:22:52.206Z,58.8571
2023-04-20T08:23:52.230Z,58.7143
2023-04-20T08:24:52.279Z,58.7143
2023-04-20T08:25:52.310Z,58.7857
2023-04-20T08:26:52.350Z,57.9286
2023-04-20T08:27:52.383Z,57.4286
2023-04-20T08:28:52.426Z,57.2143
2023-04-20T08:29:52.457Z,56.6429
2023-04-20T08:30:52.491Z,57
2023-04-20T08:31:52.615Z,56.8571
2023-04-20T08:32:52.721Z,56
2023-04-20T08:33:52.637Z,55.5
2023-04-20T08:34:52.667Z,55.7143
2023-04-20T08:35:52.741Z,55.3571
2023-04-20T08:36:52.755Z,55.3571
2023-04-20T08:37:52.785Z,55.0714
2023-04-20T08:38:52.854Z,55.5
2023-04-20T08:39:52.874Z,55.5
2023-04-20T08:40:52.914Z,54.5714
2023-04-20T08:41:52.950Z,54.5
2023-04-20T08:42:52.993Z,53.8571
2023-04-20T08:43:53.028Z,53.5
2023-04-20T08:44:53.100Z,53.1429
2023-04-20T08:45:53.158Z,53.6429
2023-04-20T08:46:53.208Z,53.5
2023-04-20T08:47:53.217Z,53.2143
2023-04-20T08:48:53.242Z,53.2143
2023-04-20T08:49:53.288Z,53.5714
2023-04-20T08:50:53.324Z,54.0714
2023-04-20T08:51:53.364Z,54.5714
2023-04-20T08:52:53.411Z,54.5
2023-04-20T08:53:53.448Z,54.6429
2023-04-20T08:54:57.582Z,54.5714
2023-04-20T08:55:53.533Z,54.5714
2023-04-20T08:56:53.553Z,55.2857
2023-04-20T08:57:53.588Z,55.1429
2023-04-20T08:58:53.628Z,54.7143
2023-04-20T08:59:53.677Z,55.1429
2023-04-20T09:00:53.700Z,55.5714
2023-04-20T09:01:53.767Z,55.8571
2023-04-20T09:02:53.892Z,56.1429
2023-04-20T09:03:53.913Z,56.3571
2023-04-20T09:04:53.925Z,56.6429
2023-04-20T09:05:53.928Z,56.7857
2023-04-20T09:06:53.945Z,56.7857
2023-04-20T09:07:53.981Z,56.5
2023-04-20T09:08:54.027Z,56.7143
2023-04-20T09:09:54.054Z,56.9286
2023-04-20T09:10:54.119Z,57.1429
2023-04-20T09:11:54.133Z,57.5
2023-04-20T09:12:54.184Z,57.7857
2023-04-20T09:13:54.224Z,58.0714
2023-04-20T09:14:54.253Z,58.2857
2023-04-20T09:15:54.396Z,58.2857
2023-04-20T09:16:54.393Z,58.2143
2023-04-20T09:17:54.462Z,58.7857
2023-04-20T09:18:54.410Z,59.1429
2023-04-20T09:19:54.452Z,59.7143
2023-04-20T09:20:54.504Z,59.7143
2023-04-20T09:21:54.537Z,60.5
2023-04-20T09:22:54.588Z,60.6429
2023-04-20T09:23:54.620Z,60.8571
2023-04-20T09:24:54.662Z,60.7857
2023-04-20T09:25:54.735Z,60.6429
2023-04-20T09:26:54.755Z,60.6429
2023-04-20T09:27:54.788Z,60.3571
2023-04-20T09:28:54.822Z,60.6429
2023-04-20T09:29:54.862Z,60.9286
2023-04-20T09:30:54.897Z,60.7857
2023-04-20T09:31:54.974Z,60.6429
2023-04-20T09:32:55.007Z,60.5
2023-04-20T09:33:55.023Z,60.7143
2023-04-20T09:34:55.062Z,60.7143
2023-04-20T09:35:55.099Z,61.2857
2023-04-20T09:36:55.144Z,60.9286
2023-04-20T09:37:55.190Z,60.9286
2023-04-20T09:38:55.217Z,61.3571
2023-04-20T09:39:55.259Z,61.4286
2023-04-20T09:40:55.292Z,61.8571
2023-04-20T09:41:55.341Z,61.4286
2023-04-20T09:42:55.388Z,61.3571
2023-04-20T09:43:55.429Z,61.4286
2023-04-20T09:44:55.475Z,61.8571
2023-04-20T09:45:55.549Z,62
2023-04-20T09:46:55.561Z,61.9286
2023-04-20T09:47:55.671Z,62.0714
2023-04-20T09:48:55.648Z,62.4286
2023-04-20T09:49:56.334Z,62.6429
2023-04-20T09:50:55.726Z,62.7857
2023-04-20T09:51:55.764Z,62.7143
2023-04-20T09:52:55.793Z,62.4286
2023-04-20T09:53:55.840Z,62.3571
2023-04-20T09:54:55.891Z,62.2143
2023-04-20T09:55:55.945Z,62.4286
2023-04-20T09:56:55.970Z,62.5714
2023-04-20T09:57:56.011Z,62.2857
2023-04-20T09:58:56.063Z,62.2857
2023-04-20T09:59:56.084Z,62.5
2023-04-20T10:00:56.170Z,62.7143
2023-04-20T10:01:56.187Z,62.5714
2023-04-20T10:02:56.242Z,62.3571
2023-04-20T10:03:56.503Z,61.8571
2023-04-20T10:04:56.304Z,62.5
2023-04-20T10:05:56.316Z,62
2023-04-20T10:06:56.367Z,62.1429
2023-04-20T10:07:56.388Z,62.5714
2023-04-20T10:08:56.444Z,62.2143
2023-04-20T10:09:56.484Z,61.6429
2023-04-20T10:10:56.512Z,61.2143
2023-04-20T10:11:58.345Z,61
2023-04-20T10:12:56.599Z,60.7143
2023-04-20T10:13:56.621Z,60
2023-04-20T10:14:56.662Z,59.7857
2023-04-20T10:15:56.711Z,59.5714
2023-04-20T10:16:56.795Z,59.5714
2023-04-20T10:17:56.900Z,59.0714
2023-04-20T10:18:56.923Z,58.9286
2023-04-20T10:19:56.857Z,58.9286
2023-04-20T10:20:56.893Z,58.5
2023-04-20T10:21:56.942Z,57.7857
2023-04-20T10:22:56.980Z,57.7857
2023-04-20T10:23:57.021Z,57.8571
2023-04-20T10:24:57.057Z,57.8571
2023-04-20T10:25:57.092Z,57.7857
2023-04-20T10:26:57.138Z,57.7857
2023-04-20T10:27:57.192Z,58.1429
2023-04-20T10:28:57.221Z,58.5
2023-04-20T10:29:57.260Z,58.9286
2023-04-20T10:30:57.318Z,58.9286
2023-04-20T10:31:57.340Z,58.8571
2023-04-20T10:32:57.446Z,58.7857
2023-04-20T10:33:57.417Z,58.5
2023-04-20T10:34:57.460Z,58
2023-04-20T10:35:57.501Z,57.4286
2023-04-20T10:36:57.545Z,57.5714
2023-04-20T10:37:57.581Z,57.9286
2023-04-20T10:38:57.624Z,57.7143
2023-04-20T10:39:57.668Z,57.5714
2023-04-20T10:40:57.727Z,57.5
2023-04-20T10:41:57.740Z,57.1429
2023-04-20T10:42:57.783Z,57.7143
2023-04-20T10:43:57.839Z,57.0714
2023-04-20T10:44:57.880Z,57.4286
2023-04-20T10:45:57.961Z,57.5
2023-04-20T10:46:57.964Z,57.5
2023-04-20T10:47:58.066Z,57.8571
2023-04-20T10:48:58.038Z,58.2143
2023-04-20T10:49:58.110Z,58.2857
2023-04-20T10:50:58.139Z,57.3571
2023-04-20T10:51:58.190Z,56.7143
2023-04-20T10:52:58.201Z,57.2857
2023-04-20T10:53:58.247Z,56.7857
2023-04-20T10:54:58.288Z,56.7857
2023-04-20T10:55:58.337Z,56.5714
2023-04-20T10:56:58.366Z,56.5714
2023-04-20T10:57:58.410Z,56.6429
2023-04-20T10:59:00.479Z,55.5
2023-04-20T10:59:58.496Z,55.6429
2023-04-20T11:00:58.520Z,55.7857
2023-04-20T11:01:58.720Z,55.4286
2023-04-20T11:02:58.842Z,55.4286
2023-04-20T11:03:58.648Z,55.3571
2023-04-20T11:04:58.720Z,55.5
2023-04-20T11:05:58.721Z,55.8571
2023-04-20T11:06:58.767Z,55.7857
2023-04-20T11:07:58.817Z,55.7143
2023-04-20T11:08:58.841Z,55.6429
2023-04-20T11:09:58.885Z,56.1429
2023-04-20T11:10:58.927Z,56.2857
2023-04-20T11:11:58.963Z,55.5
2023-04-20T11:12:59.015Z,55
2023-04-20T11:13:59.051Z,55.1429
2023-04-20T11:14:59.083Z,55.2857
2023-04-20T11:15:59.131Z,54.8571
2023-04-20T11:16:59.263Z,55.2857
2023-04-20T11:17:59.261Z,55.6429
2023-04-20T11:18:59.242Z,55.2143
2023-04-20T11:19:59.284Z,55.0714
2023-04-20T11:20:59.321Z,54.9286
2023-04-20T11:21:59.384Z,55.1429
2023-04-20T11:22:59.446Z,55.2143
2023-04-20T11:23:59.446Z,55.1429
2023-04-20T11:24:59.509Z,54.6429
2023-04-20T11:25:59.540Z,54.5714
2023-04-20T11:26:59.578Z,55
2023-04-20T11:27:59.657Z,54.8571
2023-04-20T11:29:59.702Z,55.0714
2023-04-20T11:30:59.739Z,54.7857
2023-04-20T11:31:59.892Z,54.5714
2023-04-20T11:32:59.923Z,54.0714
2023-04-20T11:33:59.869Z,54.1429
2023-04-20T11:35:06.650Z,54.3571
2023-04-20T11:35:59.948Z,54.5714
2023-04-20T11:36:59.984Z,54.4286
2023-04-20T11:38:00.030Z,55.1429
2023-04-20T11:39:00.063Z,54.5714
2023-04-20T11:40:00.127Z,54.2857
2023-04-20T11:41:00.168Z,54.9286
2023-04-20T11:42:00.202Z,55.5714
2023-04-20T11:43:00.261Z,55.1429
2023-04-20T11:44:00.274Z,55.1429
2023-04-20T11:45:00.306Z,55
2023-04-20T11:46:00.390Z,55.0714
2023-04-20T11:47:00.390Z,55.5
2023-04-20T11:48:00.454Z,55.0714
2023-04-20T11:49:00.460Z,54.6429
2023-04-20T11:50:00.534Z,54.7857
2023-04-20T11:51:00.533Z,54.5714
2023-04-20T11:52:00.588Z,55
2023-04-20T11:53:00.618Z,55.0714
2023-04-20T11:54:00.663Z,55.4286
2023-04-20T11:55:00.703Z,55.5714
2023-04-20T11:56:00.733Z,55.6429
2023-04-20T11:57:00.783Z,55.1429
2023-04-20T11:58:00.812Z,55.1429
2023-04-20T11:59:00.849Z,55.2857
2023-04-20T12:00:00.902Z,55.4286
2023-04-20T12:01:00.939Z,55.4286
2023-04-20T12:02:01.009Z,54.9286
2023-04-20T12:03:01.168Z,54.7857
2023-04-20T12:04:01.295Z,54.7143
2023-04-20T12:05:01.331Z,54.6429
2023-04-20T12:06:01.138Z,55
2023-04-20T12:07:01.190Z,54.8571
2023-04-20T12:08:01.229Z,54.8571
2023-04-20T12:09:01.271Z,54.8571
2023-04-20T12:10:01.306Z,54.2857
2023-04-20T12:11:01.350Z,54.1429
2023-04-20T12:12:01.390Z,54.0714
2023-04-20T12:13:01.430Z,54.5714
2023-04-20T12:14:01.476Z,54.6429
2023-04-20T12:15:01.514Z,53.7857
2023-04-20T12:16:01.621Z,54.2143
2023-04-20T12:17:01.592Z,54.7143
2023-04-20T12:18:01.733Z,53.8571
2023-04-20T12:19:01.686Z,54.2857
2023-04-20T12:20:01.705Z,54.6429
2023-04-20T12:21:01.753Z,54.5
2023-04-20T12:22:01.798Z,54.0714